sensor_id;sensor_type;location;lat;lon;timestamp;pressure;altitude;pressure_sealevel;temperature;humidity
47913;BME280;33676;51.006;17.180;2022-09-17T00:01:40;99104.90;;;8.88;96.28
47913;BME280;33676;51.006;17.180;2022-09-17T00:04:09;99106.48;;;8.86;96.25
47913;BME280;33676;51.006;17.180;2022-09-17T00:06:38;99112.25;;;8.84;96.43
47913;BME280;33676;51.006;17.180;2022-09-17T00:09:07;99111.41;;;8.82;96.37
47913;BME280;33676;51.006;17.180;2022-09-17T00:11:39;99111.91;;;8.80;96.26
47913;BME280;33676;51.006;17.180;2022-09-17T00:14:14;99113.87;;;8.78;96.39
47913;BME280;33676;51.006;17.180;2022-09-17T00:16:46;99116.61;;;8.77;96.39
47913;BME280;33676;51.006;17.180;2022-09-17T00:19:21;99113.61;;;8.75;96.52
47913;BME280;33676;51.006;17.180;2022-09-17T00:21:52;99114.91;;;8.74;96.52
47913;BME280;33676;51.006;17.180;2022-09-17T00:24:21;99107.86;;;8.73;96.64
47913;BME280;33676;51.006;17.180;2022-09-17T00:26:50;99103.07;;;8.72;96.80
47913;BME280;33676;51.006;17.180;2022-09-17T00:29:19;99100.54;;;8.71;96.81
47913;BME280;33676;51.006;17.180;2022-09-17T00:31:47;99097.27;;;8.69;96.79
47913;BME280;33676;51.006;17.180;2022-09-17T00:34:15;99096.27;;;8.68;96.80
47913;BME280;33676;51.006;17.180;2022-09-17T00:36:44;99095.55;;;8.67;96.92
47913;BME280;33676;51.006;17.180;2022-09-17T00:39:13;99095.71;;;8.65;96.87
47913;BME280;33676;51.006;17.180;2022-09-17T00:41:43;99094.67;;;8.65;96.88
47913;BME280;33676;51.006;17.180;2022-09-17T00:44:50;99094.91;;;8.61;96.81
47913;BME280;33676;51.006;17.180;2022-09-17T00:47:31;99097.41;;;8.59;96.99
47913;BME280;33676;51.006;17.180;2022-09-17T00:50:07;99099.20;;;8.57;97.31
47913;BME280;33676;51.006;17.180;2022-09-17T00:52:49;99100.29;;;8.54;97.51
47913;BME280;33676;51.006;17.180;2022-09-17T00:55:30;99097.27;;;8.51;97.73
47913;BME280;33676;51.006;17.180;2022-09-17T00:58:02;99093.21;;;8.47;98.04
47913;BME280;33676;51.006;17.180;2022-09-17T01:00:31;99092.66;;;8.46;98.28
47913;BME280;33676;51.006;17.180;2022-09-17T01:03:00;99093.29;;;8.45;98.33
47913;BME280;33676;51.006;17.180;2022-09-17T01:08:37;99092.93;;;8.45;98.72
47913;BME280;33676;51.006;17.180;2022-09-17T01:11:27;99095.71;;;8.47;99.22
47913;BME280;33676;51.006;17.180;2022-09-17T01:24:00;99098.13;;;8.57;100.00
47913;BME280;33676;51.006;17.180;2022-09-17T01:33:32;99096.15;;;8.61;100.00
47913;BME280;33676;51.006;17.180;2022-09-17T01:45:34;99083.64;;;8.63;100.00
47913;BME280;33676;51.006;17.180;2022-09-17T01:48:15;99074.79;;;8.62;100.00
47913;BME280;33676;51.006;17.180;2022-09-17T01:51:04;99075.72;;;8.62;100.00
47913;BME280;33676;51.006;17.180;2022-09-17T01:53:56;99080.64;;;8.61;100.00
47913;BME280;33676;51.006;17.180;2022-09-17T01:57:22;99080.86;;;8.61;100.00
47913;BME280;33676;51.006;17.180;2022-09-17T02:02:29;99086.75;;;8.59;100.00
47913;BME280;33676;51.006;17.180;2022-09-17T02:05:26;99088.01;;;8.59;100.00
47913;BME280;33676;51.006;17.180;2022-09-17T02:08:07;99086.47;;;8.59;100.00
47913;BME280;33676;51.006;17.180;2022-09-17T02:10:43;99086.44;;;8.59;100.00
47913;BME280;33676;51.006;17.180;2022-09-17T02:13:20;99087.70;;;8.60;100.00
47913;BME280;33676;51.006;17.180;2022-09-17T02:15:56;99086.03;;;8.62;100.00
47913;BME280;33676;51.006;17.180;2022-09-17T02:18:54;99087.10;;;8.63;100.00
47913;BME280;33676;51.006;17.180;2022-09-17T02:22:00;99084.41;;;8.64;100.00
47913;BME280;33676;51.006;17.180;2022-09-17T02:24:36;99084.05;;;8.67;100.00
47913;BME280;33676;51.006;17.180;2022-09-17T02:27:19;99081.09;;;8.69;100.00
47913;BME280;33676;51.006;17.180;2022-09-17T02:29:50;99079.27;;;8.69;100.00
47913;BME280;33676;51.006;17.180;2022-09-17T02:32:18;99080.92;;;8.70;100.00
47913;BME280;33676;51.006;17.180;2022-09-17T02:34:47;99081.31;;;8.70;100.00
47913;BME280;33676;51.006;17.180;2022-09-17T02:37:15;99080.95;;;8.70;100.00
47913;BME280;33676;51.006;17.180;2022-09-17T02:39:44;99079.48;;;8.71;100.00
47913;BME280;33676;51.006;17.180;2022-09-17T02:42:46;99077.18;;;8.71;100.00
47913;BME280;33676;51.006;17.180;2022-09-17T02:52:05;99068.93;;;8.70;100.00
47913;BME280;33676;51.006;17.180;2022-09-17T02:54:50;99064.34;;;8.69;100.00
47913;BME280;33676;51.006;17.180;2022-09-17T03:00:25;99063.08;;;8.70;100.00
47913;BME280;33676;51.006;17.180;2022-09-17T03:03:33;99062.49;;;8.70;100.00
47913;BME280;33676;51.006;17.180;2022-09-17T03:06:05;99061.29;;;8.72;100.00
47913;BME280;33676;51.006;17.180;2022-09-17T03:08:40;99059.25;;;8.75;100.00
47913;BME280;33676;51.006;17.180;2022-09-17T03:11:10;99063.63;;;8.79;100.00
47913;BME280;33676;51.006;17.180;2022-09-17T03:13:40;99059.66;;;8.82;100.00
47913;BME280;33676;51.006;17.180;2022-09-17T03:16:09;99060.90;;;8.87;100.00
47913;BME280;33676;51.006;17.180;2022-09-17T03:18:37;99060.32;;;8.91;100.00
47913;BME280;33676;51.006;17.180;2022-09-17T03:21:06;99060.84;;;8.97;100.00
47913;BME280;33676;51.006;17.180;2022-09-17T03:23:34;99061.50;;;9.02;100.00
47913;BME280;33676;51.006;17.180;2022-09-17T03:26:02;99061.25;;;9.06;100.00
47913;BME280;33676;51.006;17.180;2022-09-17T03:28:31;99056.45;;;9.11;100.00
47913;BME280;33676;51.006;17.180;2022-09-17T03:30:59;99057.48;;;9.17;100.00
47913;BME280;33676;51.006;17.180;2022-09-17T03:33:28;99060.27;;;9.22;100.00
47913;BME280;33676;51.006;17.180;2022-09-17T03:35:56;99062.88;;;9.28;100.00
47913;BME280;33676;51.006;17.180;2022-09-17T03:38:25;99063.27;;;9.34;100.00
47913;BME280;33676;51.006;17.180;2022-09-17T03:41:11;99065.03;;;9.39;100.00
47913;BME280;33676;51.006;17.180;2022-09-17T03:43:40;99066.06;;;9.45;100.00
47913;BME280;33676;51.006;17.180;2022-09-17T03:46:08;99067.26;;;9.51;100.00
47913;BME280;33676;51.006;17.180;2022-09-17T03:48:36;99075.45;;;9.56;100.00
47913;BME280;33676;51.006;17.180;2022-09-17T03:51:06;99075.44;;;9.62;100.00
47913;BME280;33676;51.006;17.180;2022-09-17T03:53:35;99077.98;;;9.70;100.00
47913;BME280;33676;51.006;17.180;2022-09-17T03:56:05;99071.39;;;9.79;100.00
47913;BME280;33676;51.006;17.180;2022-09-17T03:58:34;99074.33;;;9.87;100.00
47913;BME280;33676;51.006;17.180;2022-09-17T04:01:02;99070.90;;;9.91;100.00
47913;BME280;33676;51.006;17.180;2022-09-17T04:03:32;99073.08;;;9.96;100.00
47913;BME280;33676;51.006;17.180;2022-09-17T04:06:00;99062.17;;;10.01;100.00
47913;BME280;33676;51.006;17.180;2022-09-17T04:08:28;99066.06;;;10.06;100.00
47913;BME280;33676;51.006;17.180;2022-09-17T04:10:57;99066.05;;;10.09;100.00
47913;BME280;33676;51.006;17.180;2022-09-17T04:13:25;99061.92;;;10.12;100.00
47913;BME280;33676;51.006;17.180;2022-09-17T04:15:53;99057.59;;;10.14;100.00
47913;BME280;33676;51.006;17.180;2022-09-17T04:18:22;99059.48;;;10.14;100.00
47913;BME280;33676;51.006;17.180;2022-09-17T04:20:51;99056.33;;;10.13;100.00
47913;BME280;33676;51.006;17.180;2022-09-17T04:23:20;99054.47;;;10.10;100.00
47913;BME280;33676;51.006;17.180;2022-09-17T04:25:48;99054.03;;;10.09;100.00
47913;BME280;33676;51.006;17.180;2022-09-17T04:28:17;99055.35;;;10.08;100.00
47913;BME280;33676;51.006;17.180;2022-09-17T04:30:47;99055.22;;;10.08;100.00
47913;BME280;33676;51.006;17.180;2022-09-17T04:33:15;99053.19;;;10.07;100.00
47913;BME280;33676;51.006;17.180;2022-09-17T04:35:44;99053.52;;;10.07;100.00
47913;BME280;33676;51.006;17.180;2022-09-17T04:38:12;99052.98;;;10.08;100.00
47913;BME280;33676;51.006;17.180;2022-09-17T04:40:45;99053.59;;;10.08;100.00
47913;BME280;33676;51.006;17.180;2022-09-17T04:43:14;99051.93;;;10.09;100.00
47913;BME280;33676;51.006;17.180;2022-09-17T04:45:46;99049.16;;;10.11;100.00
47913;BME280;33676;51.006;17.180;2022-09-17T04:48:15;99049.74;;;10.12;100.00
47913;BME280;33676;51.006;17.180;2022-09-17T04:50:44;99053.78;;;10.14;100.00
47913;BME280;33676;51.006;17.180;2022-09-17T04:53:12;99052.02;;;10.16;100.00
47913;BME280;33676;51.006;17.180;2022-09-17T04:55:42;99057.52;;;10.18;100.00
47913;BME280;33676;51.006;17.180;2022-09-17T04:58:10;99056.10;;;10.21;100.00
47913;BME280;33676;51.006;17.180;2022-09-17T05:00:39;99061.46;;;10.23;100.00
47913;BME280;33676;51.006;17.180;2022-09-17T05:03:09;99063.31;;;10.27;100.00
47913;BME280;33676;51.006;17.180;2022-09-17T05:05:37;99061.96;;;10.31;100.00
47913;BME280;33676;51.006;17.180;2022-09-17T05:08:05;99061.18;;;10.34;100.00
47913;BME280;33676;51.006;17.180;2022-09-17T05:10:35;99059.26;;;10.37;100.00
47913;BME280;33676;51.006;17.180;2022-09-17T05:13:03;99062.38;;;10.40;100.00
47913;BME280;33676;51.006;17.180;2022-09-17T05:15:32;99059.46;;;10.43;100.00
47913;BME280;33676;51.006;17.180;2022-09-17T05:18:00;99062.32;;;10.48;100.00
47913;BME280;33676;51.006;17.180;2022-09-17T05:20:29;99058.52;;;10.51;100.00
47913;BME280;33676;51.006;17.180;2022-09-17T05:22:58;99062.27;;;10.56;100.00
47913;BME280;33676;51.006;17.180;2022-09-17T05:25:26;99057.30;;;10.60;100.00
47913;BME280;33676;51.006;17.180;2022-09-17T05:27:55;99055.98;;;10.65;100.00
47913;BME280;33676;51.006;17.180;2022-09-17T05:30:23;99059.66;;;10.70;100.00
47913;BME280;33676;51.006;17.180;2022-09-17T05:33:04;99057.23;;;10.76;100.00
47913;BME280;33676;51.006;17.180;2022-09-17T05:35:33;99060.30;;;10.82;100.00
47913;BME280;33676;51.006;17.180;2022-09-17T05:38:05;99057.89;;;10.88;100.00
47913;BME280;33676;51.006;17.180;2022-09-17T05:40:35;99056.02;;;10.94;100.00
47913;BME280;33676;51.006;17.180;2022-09-17T05:43:06;99059.16;;;11.02;100.00
47913;BME280;33676;51.006;17.180;2022-09-17T05:45:36;99058.91;;;11.08;100.00
47913;BME280;33676;51.006;17.180;2022-09-17T05:48:08;99050.73;;;11.14;99.93
47913;BME280;33676;51.006;17.180;2022-09-17T05:50:37;99055.14;;;11.20;99.96
47913;BME280;33676;51.006;17.180;2022-09-17T05:53:14;99055.61;;;11.26;99.76
47913;BME280;33676;51.006;17.180;2022-09-17T05:55:43;99062.18;;;11.33;99.56
47913;BME280;33676;51.006;17.180;2022-09-17T05:58:14;99056.05;;;11.38;99.53
47913;BME280;33676;51.006;17.180;2022-09-17T06:00:45;99052.31;;;11.42;99.34
47913;BME280;33676;51.006;17.180;2022-09-17T06:03:16;99053.20;;;11.47;99.21
47913;BME280;33676;51.006;17.180;2022-09-17T06:05:58;99051.55;;;11.53;99.13
47913;BME280;33676;51.006;17.180;2022-09-17T06:08:28;99052.45;;;11.59;98.91
47913;BME280;33676;51.006;17.180;2022-09-17T06:10:56;99056.59;;;11.65;98.70
47913;BME280;33676;51.006;17.180;2022-09-17T06:13:30;99058.32;;;11.70;98.64
47913;BME280;33676;51.006;17.180;2022-09-17T06:15:59;99071.98;;;11.77;98.67
47913;BME280;33676;51.006;17.180;2022-09-17T06:18:29;99079.23;;;11.82;98.39
47913;BME280;33676;51.006;17.180;2022-09-17T06:21:02;99082.09;;;11.86;98.42
47913;BME280;33676;51.006;17.180;2022-09-17T06:23:33;99086.86;;;11.89;98.33
47913;BME280;33676;51.006;17.180;2022-09-17T06:26:05;99090.25;;;11.92;98.23
47913;BME280;33676;51.006;17.180;2022-09-17T06:28:35;99097.33;;;11.95;98.11
47913;BME280;33676;51.006;17.180;2022-09-17T06:31:11;99101.45;;;11.99;97.96
47913;BME280;33676;51.006;17.180;2022-09-17T06:33:40;99100.80;;;12.00;97.90
47913;BME280;33676;51.006;17.180;2022-09-17T06:36:11;99102.19;;;12.02;97.99
47913;BME280;33676;51.006;17.180;2022-09-17T06:38:42;99107.13;;;12.03;97.96
47913;BME280;33676;51.006;17.180;2022-09-17T06:41:10;99109.04;;;12.05;97.87
47913;BME280;33676;51.006;17.180;2022-09-17T06:43:40;99109.91;;;12.07;97.90
47913;BME280;33676;51.006;17.180;2022-09-17T06:46:09;99113.59;;;12.09;97.89
47913;BME280;33676;51.006;17.180;2022-09-17T06:48:38;99110.84;;;12.10;97.89
47913;BME280;33676;51.006;17.180;2022-09-17T06:51:09;99113.07;;;12.10;97.73
47913;BME280;33676;51.006;17.180;2022-09-17T06:53:39;99115.94;;;12.11;97.72
47913;BME280;33676;51.006;17.180;2022-09-17T06:56:09;99110.16;;;12.13;97.68
47913;BME280;33676;51.006;17.180;2022-09-17T06:58:38;99116.80;;;12.15;97.55
47913;BME280;33676;51.006;17.180;2022-09-17T07:01:11;99114.70;;;12.16;97.58
47913;BME280;33676;51.006;17.180;2022-09-17T07:03:41;99116.09;;;12.18;97.53
47913;BME280;33676;51.006;17.180;2022-09-17T07:06:10;99119.50;;;12.21;97.41
47913;BME280;33676;51.006;17.180;2022-09-17T07:08:39;99115.13;;;12.22;97.41
47913;BME280;33676;51.006;17.180;2022-09-17T07:11:08;99118.65;;;12.24;97.49
47913;BME280;33676;51.006;17.180;2022-09-17T07:13:37;99122.52;;;12.25;97.29
47913;BME280;33676;51.006;17.180;2022-09-17T07:16:05;99123.30;;;12.26;97.32
47913;BME280;33676;51.006;17.180;2022-09-17T07:18:34;99119.55;;;12.27;97.34
47913;BME280;33676;51.006;17.180;2022-09-17T07:21:05;99111.02;;;12.29;97.31
47913;BME280;33676;51.006;17.180;2022-09-17T07:23:37;99109.61;;;12.32;97.17
47913;BME280;33676;51.006;17.180;2022-09-17T07:26:11;99112.23;;;12.35;97.18
47913;BME280;33676;51.006;17.180;2022-09-17T07:28:42;99126.99;;;12.38;97.13
47913;BME280;33676;51.006;17.180;2022-09-17T07:31:12;99130.85;;;12.42;97.24
47913;BME280;33676;51.006;17.180;2022-09-17T07:33:44;99133.39;;;12.46;97.12
47913;BME280;33676;51.006;17.180;2022-09-17T07:36:14;99134.27;;;12.52;97.18
47913;BME280;33676;51.006;17.180;2022-09-17T07:38:45;99135.52;;;12.58;97.06
47913;BME280;33676;51.006;17.180;2022-09-17T07:41:16;99136.91;;;12.64;96.92
47913;BME280;33676;51.006;17.180;2022-09-17T07:43:45;99137.80;;;12.67;96.94
47913;BME280;33676;51.006;17.180;2022-09-17T07:46:18;99140.54;;;12.69;96.95
47913;BME280;33676;51.006;17.180;2022-09-17T07:48:48;99144.55;;;12.71;96.71
47913;BME280;33676;51.006;17.180;2022-09-17T07:51:20;99149.30;;;12.73;96.62
47913;BME280;33676;51.006;17.180;2022-09-17T07:53:54;99145.81;;;12.74;96.54
47913;BME280;33676;51.006;17.180;2022-09-17T07:56:25;99147.79;;;12.75;96.37
47913;BME280;33676;51.006;17.180;2022-09-17T07:58:54;99148.69;;;12.78;96.43
47913;BME280;33676;51.006;17.180;2022-09-17T08:01:22;99144.82;;;12.84;96.69
47913;BME280;33676;51.006;17.180;2022-09-17T08:03:53;99149.25;;;12.90;96.50
47913;BME280;33676;51.006;17.180;2022-09-17T08:06:24;99150.69;;;12.92;96.41
47913;BME280;33676;51.006;17.180;2022-09-17T08:08:57;99154.36;;;12.96;96.11
47913;BME280;33676;51.006;17.180;2022-09-17T08:11:28;99146.18;;;13.00;96.13
47913;BME280;33676;51.006;17.180;2022-09-17T08:14:16;99142.03;;;13.03;95.84
47913;BME280;33676;51.006;17.180;2022-09-17T08:16:45;99142.27;;;13.07;95.81
47913;BME280;33676;51.006;17.180;2022-09-17T08:19:14;99138.49;;;13.14;95.68
47913;BME280;33676;51.006;17.180;2022-09-17T08:21:42;99136.20;;;13.21;95.50
47913;BME280;33676;51.006;17.180;2022-09-17T08:24:11;99140.05;;;13.30;95.35
47913;BME280;33676;51.006;17.180;2022-09-17T08:26:39;99137.85;;;13.38;95.08
47913;BME280;33676;51.006;17.180;2022-09-17T08:29:08;99142.02;;;13.44;94.87
47913;BME280;33676;51.006;17.180;2022-09-17T08:31:38;99138.87;;;13.49;94.83
47913;BME280;33676;51.006;17.180;2022-09-17T08:34:08;99140.69;;;13.53;94.84
47913;BME280;33676;51.006;17.180;2022-09-17T08:36:37;99143.02;;;13.56;94.74
47913;BME280;33676;51.006;17.180;2022-09-17T08:39:06;99146.30;;;13.59;94.55
47913;BME280;33676;51.006;17.180;2022-09-17T08:42:06;99145.02;;;13.65;94.57
47913;BME280;33676;51.006;17.180;2022-09-17T08:45:02;99147.71;;;13.69;94.04
47913;BME280;33676;51.006;17.180;2022-09-17T08:47:38;99139.09;;;13.69;93.97
47913;BME280;33676;51.006;17.180;2022-09-17T08:50:32;99142.17;;;13.73;94.11
47913;BME280;33676;51.006;17.180;2022-09-17T08:53:37;99145.53;;;13.76;93.42
47913;BME280;33676;51.006;17.180;2022-09-17T08:56:09;99129.53;;;13.75;93.23
47913;BME280;33676;51.006;17.180;2022-09-17T08:59:33;99141.09;;;13.72;93.06
47913;BME280;33676;51.006;17.180;2022-09-17T09:08:05;99127.52;;;13.71;93.55
47913;BME280;33676;51.006;17.180;2022-09-17T09:13:37;99127.16;;;13.88;93.70
47913;BME280;33676;51.006;17.180;2022-09-17T09:16:37;99131.20;;;14.03;93.13
47913;BME280;33676;51.006;17.180;2022-09-17T09:19:22;99137.55;;;14.15;93.12
47913;BME280;33676;51.006;17.180;2022-09-17T09:22:02;99144.82;;;14.29;93.27
47913;BME280;33676;51.006;17.180;2022-09-17T09:24:39;99158.13;;;14.40;92.92
47913;BME280;33676;51.006;17.180;2022-09-17T09:27:17;99165.61;;;14.43;92.62
47913;BME280;33676;51.006;17.180;2022-09-17T09:30:09;99177.70;;;14.43;92.73
47913;BME280;33676;51.006;17.180;2022-09-17T09:35:25;99174.06;;;14.44;92.43
47913;BME280;33676;51.006;17.180;2022-09-17T09:38:23;99185.11;;;14.39;92.31
47913;BME280;33676;51.006;17.180;2022-09-17T09:41:12;99192.59;;;14.34;92.61
47913;BME280;33676;51.006;17.180;2022-09-17T09:44:09;99200.56;;;14.27;92.41
47913;BME280;33676;51.006;17.180;2022-09-17T09:58:39;99188.39;;;14.26;92.17
47913;BME280;33676;51.006;17.180;2022-09-17T10:01:19;99183.45;;;14.29;92.04
47913;BME280;33676;51.006;17.180;2022-09-17T10:03:51;99190.26;;;14.32;92.38
47913;BME280;33676;51.006;17.180;2022-09-17T10:06:21;99190.27;;;14.37;92.26
47913;BME280;33676;51.006;17.180;2022-09-17T10:11:27;99194.23;;;14.41;91.85
47913;BME280;33676;51.006;17.180;2022-09-17T10:14:24;99196.27;;;14.40;91.74
47913;BME280;33676;51.006;17.180;2022-09-17T10:17:18;99194.82;;;14.39;91.87
47913;BME280;33676;51.006;17.180;2022-09-17T10:22:45;99191.98;;;14.28;91.82
47913;BME280;33676;51.006;17.180;2022-09-17T10:25:29;99201.06;;;14.24;91.91
47913;BME280;33676;51.006;17.180;2022-09-17T10:28:02;99202.91;;;14.23;91.96
47913;BME280;33676;51.006;17.180;2022-09-17T10:30:31;99209.63;;;14.24;92.13
47913;BME280;33676;51.006;17.180;2022-09-17T10:33:20;99208.76;;;14.29;92.19
47913;BME280;33676;51.006;17.180;2022-09-17T10:36:02;99206.44;;;14.34;92.21
47913;BME280;33676;51.006;17.180;2022-09-17T10:38:49;99201.21;;;14.38;91.90
47913;BME280;33676;51.006;17.180;2022-09-17T10:41:20;99204.49;;;14.45;91.65
47913;BME280;33676;51.006;17.180;2022-09-17T10:43:49;99199.79;;;14.51;91.60
47913;BME280;33676;51.006;17.180;2022-09-17T10:46:36;99202.39;;;14.56;91.32
47913;BME280;33676;51.006;17.180;2022-09-17T10:49:28;99201.35;;;14.59;91.26
47913;BME280;33676;51.006;17.180;2022-09-17T10:54:55;99209.83;;;14.54;90.72
47913;BME280;33676;51.006;17.180;2022-09-17T11:00:17;99191.04;;;14.41;90.93
47913;BME280;33676;51.006;17.180;2022-09-17T11:26:47;99183.32;;;15.83;91.09
47913;BME280;33676;51.006;17.180;2022-09-17T11:33:06;99173.94;;;15.90;88.46
47913;BME280;33676;51.006;17.180;2022-09-17T11:35:56;99168.20;;;15.93;88.28
47913;BME280;33676;51.006;17.180;2022-09-17T11:38:48;99164.77;;;15.95;88.40
47913;BME280;33676;51.006;17.180;2022-09-17T11:41:32;99164.15;;;15.94;88.16
47913;BME280;33676;51.006;17.180;2022-09-17T11:46:43;99174.67;;;15.93;87.18
47913;BME280;33676;51.006;17.180;2022-09-17T11:49:37;99171.73;;;15.93;86.89
47913;BME280;33676;51.006;17.180;2022-09-17T11:52:23;99163.14;;;15.95;86.62
47913;BME280;33676;51.006;17.180;2022-09-17T11:55:22;99160.30;;;16.10;86.72
47913;BME280;33676;51.006;17.180;2022-09-17T11:58:05;99148.83;;;16.50;87.32
47913;BME280;33676;51.006;17.180;2022-09-17T12:00:47;99151.98;;;16.96;87.01
47913;BME280;33676;51.006;17.180;2022-09-17T12:03:29;99145.23;;;17.15;85.42
47913;BME280;33676;51.006;17.180;2022-09-17T12:06:08;99144.33;;;17.19;84.59
47913;BME280;33676;51.006;17.180;2022-09-17T12:08:58;99140.80;;;17.17;84.28
47913;BME280;33676;51.006;17.180;2022-09-17T12:11:41;99128.20;;;17.15;83.95
47913;BME280;33676;51.006;17.180;2022-09-17T12:14:25;99133.27;;;17.06;83.11
47913;BME280;33676;51.006;17.180;2022-09-17T12:16:58;99125.55;;;16.97;83.13
47913;BME280;33676;51.006;17.180;2022-09-17T12:19:38;99128.36;;;16.97;83.22
47913;BME280;33676;51.006;17.180;2022-09-17T12:22:32;99124.57;;;16.85;82.67
47913;BME280;33676;51.006;17.180;2022-09-17T12:25:13;99124.61;;;16.74;82.67
47913;BME280;33676;51.006;17.180;2022-09-17T12:30:22;99125.35;;;17.06;83.83
47913;BME280;33676;51.006;17.180;2022-09-17T12:36:44;99122.34;;;18.00;84.07
47913;BME280;33676;51.006;17.180;2022-09-17T12:39:59;99116.85;;;18.23;82.47
47913;BME280;33676;51.006;17.180;2022-09-17T12:42:39;99116.65;;;18.19;81.39
47913;BME280;33676;51.006;17.180;2022-09-17T12:45:32;99111.36;;;18.36;82.21
47913;BME280;33676;51.006;17.180;2022-09-17T12:48:26;99104.21;;;18.78;82.45
47913;BME280;33676;51.006;17.180;2022-09-17T12:51:25;99097.77;;;19.05;81.62
47913;BME280;33676;51.006;17.180;2022-09-17T12:54:38;99094.42;;;18.88;80.87
47913;BME280;33676;51.006;17.180;2022-09-17T13:00:07;99091.11;;;18.14;79.36
47913;BME280;33676;51.006;17.180;2022-09-17T13:06:04;99084.19;;;17.73;80.28
47913;BME280;33676;51.006;17.180;2022-09-17T13:12:39;99080.33;;;17.41;80.66
47913;BME280;33676;51.006;17.180;2022-09-17T13:18:18;99072.95;;;17.75;80.81
47913;BME280;33676;51.006;17.180;2022-09-17T13:21:31;99074.48;;;17.78;80.58
47913;BME280;33676;51.006;17.180;2022-09-17T13:24:13;99073.00;;;18.09;80.82
47913;BME280;33676;51.006;17.180;2022-09-17T13:26:43;99069.37;;;18.62;81.47
47913;BME280;33676;51.006;17.180;2022-09-17T13:40:30;99083.55;;;18.44;76.81
47913;BME280;33676;51.006;17.180;2022-09-17T13:45:30;99080.95;;;17.65;77.81
47913;BME280;33676;51.006;17.180;2022-09-17T13:48:08;99085.29;;;17.35;78.68
47913;BME280;33676;51.006;17.180;2022-09-17T13:50:40;99085.39;;;17.06;79.53
47913;BME280;33676;51.006;17.180;2022-09-17T13:55:58;99085.92;;;16.64;80.99
47913;BME280;33676;51.006;17.180;2022-09-17T13:58:34;99084.33;;;16.42;81.40
47913;BME280;33676;51.006;17.180;2022-09-17T14:01:06;99078.76;;;16.25;81.92
47913;BME280;33676;51.006;17.180;2022-09-17T14:16:52;99067.88;;;15.71;84.17
47913;BME280;33676;51.006;17.180;2022-09-17T14:24:44;99070.89;;;15.52;84.47
47913;BME280;33676;51.006;17.180;2022-09-17T14:27:51;99063.80;;;15.48;84.34
47913;BME280;33676;51.006;17.180;2022-09-17T14:30:29;99059.63;;;15.46;84.60
47913;BME280;33676;51.006;17.180;2022-09-17T14:33:17;99056.62;;;15.54;84.62
47913;BME280;33676;51.006;17.180;2022-09-17T14:35:56;99055.24;;;15.69;84.77
47913;BME280;33676;51.006;17.180;2022-09-17T14:38:40;99055.59;;;15.82;84.80
47913;BME280;33676;51.006;17.180;2022-09-17T14:49:22;99058.03;;;16.24;84.38
47913;BME280;33676;51.006;17.180;2022-09-17T14:51:55;99065.00;;;16.22;84.10
47913;BME280;33676;51.006;17.180;2022-09-17T14:54:29;99070.23;;;16.14;83.74
47913;BME280;33676;51.006;17.180;2022-09-17T14:57:26;99066.38;;;16.10;83.67
47913;BME280;33676;51.006;17.180;2022-09-17T14:59:56;99069.85;;;16.10;83.94
47913;BME280;33676;51.006;17.180;2022-09-17T15:02:40;99075.23;;;16.14;83.98
47913;BME280;33676;51.006;17.180;2022-09-17T15:05:35;99080.71;;;16.16;83.59
47913;BME280;33676;51.006;17.180;2022-09-17T15:10:45;99075.68;;;16.30;83.06
47913;BME280;33676;51.006;17.180;2022-09-17T15:16:06;99074.83;;;16.40;82.87
47913;BME280;33676;51.006;17.180;2022-09-17T15:18:46;99075.39;;;16.47;82.79
47913;BME280;33676;51.006;17.180;2022-09-17T15:21:32;99075.73;;;16.56;82.49
47913;BME280;33676;51.006;17.180;2022-09-17T15:24:42;99068.77;;;16.67;82.42
47913;BME280;33676;51.006;17.180;2022-09-17T15:27:33;99067.65;;;16.97;82.31
47913;BME280;33676;51.006;17.180;2022-09-17T15:30:08;99068.20;;;17.89;82.26
47913;BME280;33676;51.006;17.180;2022-09-17T15:32:40;99066.42;;;18.80;82.41
47913;BME280;33676;51.006;17.180;2022-09-17T15:40:39;99077.40;;;22.26;79.37
47913;BME280;33676;51.006;17.180;2022-09-17T15:43:29;99077.80;;;21.61;77.46
47913;BME280;33676;51.006;17.180;2022-09-17T15:46:26;99080.02;;;20.92;76.06
47913;BME280;33676;51.006;17.180;2022-09-17T15:49:00;99083.24;;;20.24;75.72
47913;BME280;33676;51.006;17.180;2022-09-17T15:51:35;99090.89;;;19.66;75.41
47913;BME280;33676;51.006;17.180;2022-09-17T15:54:05;99098.42;;;19.16;75.82
47913;BME280;33676;51.006;17.180;2022-09-17T15:56:39;99094.93;;;18.73;75.70
47913;BME280;33676;51.006;17.180;2022-09-17T15:59:29;99087.65;;;18.27;75.64
47913;BME280;33676;51.006;17.180;2022-09-17T16:02:00;99085.27;;;17.81;76.07
47913;BME280;33676;51.006;17.180;2022-09-17T16:04:32;99092.52;;;17.48;76.57
47913;BME280;33676;51.006;17.180;2022-09-17T16:09:46;99109.27;;;16.86;77.14
47913;BME280;33676;51.006;17.180;2022-09-17T16:12:23;99111.91;;;16.54;77.38
47913;BME280;33676;51.006;17.180;2022-09-17T16:14:54;99110.79;;;16.26;77.60
47913;BME280;33676;51.006;17.180;2022-09-17T16:20:22;99125.59;;;15.80;78.78
47913;BME280;33676;51.006;17.180;2022-09-17T16:22:52;99133.19;;;15.64;78.97
47913;BME280;33676;51.006;17.180;2022-09-17T16:25:26;99130.66;;;15.51;79.23
47913;BME280;33676;51.006;17.180;2022-09-17T16:28:17;99136.23;;;15.39;79.20
47913;BME280;33676;51.006;17.180;2022-09-17T16:30:48;99131.08;;;15.18;78.92
47913;BME280;33676;51.006;17.180;2022-09-17T16:33:17;99131.63;;;15.03;79.16
47913;BME280;33676;51.006;17.180;2022-09-17T16:35:47;99129.61;;;14.90;79.49
47913;BME280;33676;51.006;17.180;2022-09-17T16:38:15;99128.16;;;14.79;79.84
47913;BME280;33676;51.006;17.180;2022-09-17T16:40:45;99122.39;;;14.67;79.87
47913;BME280;33676;51.006;17.180;2022-09-17T16:43:17;99124.98;;;14.55;80.33